createdAt,value
2017-12-25T13:52:48.543Z,983.90
2017-12-25T13:53:49.410Z,983.91
2017-12-25T13:55:41.747Z,983.89
2017-12-25T13:56:41.578Z,983.94
2017-12-25T13:58:35.508Z,983.99
2017-12-25T13:59:35.404Z,983.95
2017-12-25T14:01:29.884Z,983.93
2017-12-25T14:02:29.435Z,983.91
2017-12-25T14:04:23.363Z,983.90
2017-12-25T14:05:23.301Z,983.88
2017-12-25T14:07:17.813Z,983.87
2017-12-25T14:08:17.489Z,983.83
2017-12-25T14:10:10.980Z,983.88
2017-12-25T14:11:10.900Z,983.88
2017-12-25T14:13:04.803Z,983.84
2017-12-25T14:14:04.334Z,983.82
2017-12-25T14:15:59.299Z,983.84
2017-12-25T14:16:59.365Z,983.84
2017-12-25T14:18:52.945Z,983.79
2017-12-25T14:19:52.401Z,983.75
2017-12-25T14:21:46.935Z,983.73
2017-12-25T14:22:47.201Z,983.70
2017-12-25T14:24:41.089Z,983.68
2017-12-25T14:25:40.660Z,983.70
2017-12-25T14:27:34.432Z,983.67
2017-12-25T14:28:34.113Z,983.66
2017-12-25T14:30:28.623Z,983.70
2017-12-25T14:31:28.573Z,983.66
2017-12-25T14:33:22.147Z,983.62
2017-12-25T14:34:22.061Z,983.63
2017-12-25T14:36:20.040Z,983.60
2017-12-25T14:37:20.037Z,983.57
2017-12-25T14:39:13.524Z,983.55
2017-12-25T14:40:13.404Z,983.55
2017-12-25T14:42:07.979Z,983.47
2017-12-25T14:43:07.990Z,983.48
2017-12-25T14:45:01.547Z,983.46
2017-12-25T14:46:01.453Z,983.44
2017-12-25T14:47:56.112Z,983.43
2017-12-25T14:48:55.729Z,983.43
2017-12-25T14:50:49.523Z,983.40
2017-12-25T14:51:49.049Z,983.42
2017-12-25T14:53:43.563Z,983.40
2017-12-25T14:54:42.627Z,983.42
2017-12-25T14:56:37.513Z,983.36
2017-12-25T14:57:37.792Z,983.38
2017-12-25T14:59:30.873Z,983.32
2017-12-25T15:00:30.443Z,983.35
2017-12-25T15:02:25.362Z,983.29
2017-12-25T15:03:24.936Z,983.29
2017-12-25T15:05:21.623Z,983.22
2017-12-25T15:06:21.309Z,983.20
2017-12-25T15:08:14.745Z,983.17
2017-12-25T15:09:14.702Z,983.15
2017-12-25T15:11:08.542Z,983.19
2017-12-25T15:12:08.515Z,983.17
2017-12-25T15:14:03.138Z,983.15
2017-12-25T15:15:02.595Z,983.14
2017-12-25T15:16:56.454Z,983.18
2017-12-25T15:17:56.866Z,983.13
2017-12-25T15:19:50.922Z,983.14
2017-12-25T15:20:50.547Z,983.12
2017-12-25T15:22:44.510Z,983.11
2017-12-25T15:23:44.507Z,983.08
2017-12-25T15:25:38.014Z,983.02
2017-12-25T15:26:37.544Z,983.06
2017-12-25T15:28:32.380Z,983.05
2017-12-25T15:29:32.329Z,983.00
2017-12-25T15:31:26.909Z,982.97
2017-12-25T15:32:26.908Z,982.93
2017-12-25T15:34:21.122Z,982.92
2017-12-25T15:35:21.111Z,982.90
2017-12-25T15:37:15.731Z,982.91
2017-12-25T15:38:15.702Z,982.82
2017-12-25T15:40:08.603Z,982.81
2017-12-25T15:41:08.585Z,982.73
2017-12-25T15:43:02.102Z,982.72
2017-12-25T15:44:01.941Z,982.69
2017-12-25T15:45:56.675Z,982.58
2017-12-25T15:46:56.229Z,982.57
2017-12-25T15:48:50.177Z,982.54
2017-12-25T15:49:50.021Z,982.51
2017-12-25T15:51:42.983Z,982.55
2017-12-25T15:52:42.587Z,982.51
2017-12-25T15:54:36.570Z,982.51
2017-12-25T15:55:36.040Z,982.47
2017-12-25T15:57:30.985Z,982.47
2017-12-25T15:58:30.877Z,982.45
2017-12-25T16:00:25.070Z,982.43
2017-12-25T16:01:24.385Z,982.42
2017-12-25T16:03:17.858Z,982.38
2017-12-25T16:04:17.581Z,982.39
2017-12-25T16:06:12.534Z,982.36
2017-12-25T16:07:12.426Z,982.37
2017-12-25T16:09:05.975Z,982.31
2017-12-25T16:10:05.840Z,982.28
2017-12-25T16:12:01.836Z,982.26
2017-12-25T16:13:01.735Z,982.32
2017-12-25T16:14:55.244Z,982.24
2017-12-25T16:15:55.219Z,982.27
2017-12-25T16:17:49.781Z,982.23
2017-12-25T16:18:49.364Z,982.20
2017-12-25T16:20:43.233Z,982.20
2017-12-25T16:21:42.809Z,982.19
2017-12-25T16:23:37.828Z,982.13
2017-12-25T16:24:37.298Z,982.13
2017-12-25T16:26:32.227Z,982.06
2017-12-25T16:27:32.199Z,982.07
2017-12-25T16:29:25.835Z,982.04
2017-12-25T16:30:25.553Z,982.05
2017-12-25T16:32:18.630Z,982.08
2017-12-25T16:33:18.223Z,982.09
2017-12-25T16:35:13.180Z,982.07
2017-12-25T16:36:12.718Z,982.06
2017-12-25T16:38:08.412Z,982.02
2017-12-25T16:39:06.161Z,982.05
2017-12-25T16:41:01.183Z,982.03
2017-12-25T16:42:00.995Z,982.04
2017-12-25T16:43:54.544Z,982.04
2017-12-25T16:44:54.079Z,982.05
2017-12-25T16:46:48.041Z,981.98
2017-12-25T16:47:47.982Z,981.95
2017-12-25T16:49:42.511Z,981.93
2017-12-25T16:50:42.427Z,981.90
2017-12-25T16:52:36.085Z,981.88
2017-12-25T16:53:36.258Z,981.86
2017-12-25T16:55:29.466Z,981.87
2017-12-25T16:56:29.354Z,981.82
2017-12-25T16:58:24.052Z,981.78
2017-12-25T16:59:23.866Z,981.78
2017-12-25T17:01:17.416Z,981.75
2017-12-25T17:02:17.377Z,981.70
2017-12-25T17:04:11.934Z,981.68
2017-12-25T17:05:11.846Z,981.74
2017-12-25T17:07:05.402Z,981.71
2017-12-25T17:08:04.930Z,981.63
2017-12-25T17:09:58.756Z,981.66
2017-12-25T17:10:58.348Z,981.65
2017-12-25T17:12:53.307Z,981.55
2017-12-25T17:13:52.931Z,981.55
2017-12-25T17:15:46.894Z,981.52
2017-12-25T17:16:46.511Z,981.59
2017-12-25T17:18:40.974Z,981.47
2017-12-25T17:19:40.993Z,981.45
2017-12-25T17:21:34.731Z,981.45
2017-12-25T17:22:34.232Z,981.47
2017-12-25T17:24:28.216Z,981.47
2017-12-25T17:25:27.734Z,981.42
2017-12-25T17:27:23.297Z,981.39
2017-12-25T17:28:22.616Z,981.37
2017-12-25T17:30:16.699Z,981.32
2017-12-25T17:31:16.058Z,981.32
2017-12-25T17:34:09.683Z,981.23
2017-12-25T17:36:03.266Z,981.26
2017-12-25T17:37:03.109Z,981.25
2017-12-25T17:38:57.183Z,981.24
2017-12-25T17:39:56.599Z,981.25
2017-12-25T17:41:51.487Z,981.25
2017-12-25T17:42:51.100Z,981.22
2017-12-25T17:43:51.052Z,981.22
2017-12-25T17:44:51.039Z,981.22
2017-12-25T17:45:51.497Z,981.22
2017-12-25T17:46:50.614Z,981.23
2017-12-25T17:47:50.832Z,981.23
2017-12-25T17:48:50.752Z,981.22
2017-12-25T17:49:51.372Z,981.21
2017-12-25T17:50:55.076Z,981.21
2017-12-25T17:51:51.004Z,981.15
2017-12-25T17:52:50.750Z,981.13
2017-12-25T17:53:50.215Z,981.14
2017-12-25T17:54:50.103Z,981.17
2017-12-25T17:55:50.063Z,981.14
2017-12-25T17:56:50.003Z,981.10
2017-12-25T17:57:49.972Z,981.10
2017-12-25T17:58:49.961Z,981.09
2017-12-25T17:59:49.872Z,981.03
2017-12-25T18:00:49.822Z,981.08
2017-12-25T18:01:49.790Z,981.01
2017-12-25T18:02:49.820Z,981.03
2017-12-25T18:03:49.723Z,981.01
2017-12-25T18:04:49.671Z,981.05
2017-12-25T18:05:49.599Z,981.04
2017-12-25T18:06:49.558Z,980.96
2017-12-25T18:07:49.512Z,980.97
2017-12-25T18:08:49.470Z,980.89
2017-12-25T18:09:49.402Z,980.86
2017-12-25T18:10:49.995Z,980.90
2017-12-25T18:11:49.359Z,980.86
2017-12-25T18:12:49.270Z,980.86
2017-12-25T18:13:49.229Z,980.91
2017-12-25T18:14:49.192Z,980.87
2017-12-25T18:15:49.139Z,980.83
2017-12-25T18:16:49.131Z,980.86
2017-12-25T18:17:49.040Z,980.86
2017-12-25T18:18:49.015Z,980.88
2017-12-25T18:19:48.970Z,980.84
2017-12-25T18:20:48.913Z,980.83
2017-12-25T18:21:48.857Z,980.84
2017-12-25T18:22:48.825Z,980.73
2017-12-25T18:23:48.768Z,980.75
2017-12-25T18:24:48.739Z,980.70
2017-12-25T18:25:48.693Z,980.71
2017-12-25T18:26:48.648Z,980.75
2017-12-25T18:27:48.605Z,980.70
2017-12-25T18:28:48.547Z,980.69
2017-12-25T18:29:48.485Z,980.67
2017-12-25T18:30:48.433Z,980.66
2017-12-25T18:31:48.422Z,980.64
2017-12-25T18:32:48.329Z,980.68
2017-12-25T18:33:48.306Z,980.65
2017-12-25T18:34:48.263Z,980.69
2017-12-25T18:35:48.233Z,980.68
2017-12-25T18:36:48.172Z,980.68
2017-12-25T18:37:48.116Z,980.66
2017-12-25T18:38:48.067Z,980.64
2017-12-25T18:39:48.015Z,980.69
2017-12-25T18:40:48.010Z,980.68
2017-12-25T18:41:47.934Z,980.73
2017-12-25T18:42:47.884Z,980.63
2017-12-25T18:43:47.882Z,980.68
2017-12-25T18:44:47.786Z,980.63
2017-12-25T18:45:47.738Z,980.61
2017-12-25T18:46:47.703Z,980.58
2017-12-25T18:47:47.660Z,980.64
2017-12-25T18:48:47.631Z,980.61
2017-12-25T18:49:47.684Z,980.65
2017-12-25T18:50:47.527Z,980.66
2017-12-25T18:51:47.459Z,980.67
2017-12-25T18:52:47.470Z,980.69
2017-12-25T18:53:47.401Z,980.66
2017-12-25T18:54:47.321Z,980.67
2017-12-25T18:55:47.289Z,980.62
2017-12-25T18:56:47.242Z,980.63
2017-12-25T18:57:47.195Z,980.66
2017-12-25T18:58:47.150Z,980.72
2017-12-25T18:59:47.082Z,980.66
2017-12-25T19:00:47.051Z,980.70
2017-12-25T19:01:47.012Z,980.73
2017-12-25T19:02:46.945Z,980.72
2017-12-25T19:03:46.914Z,980.71
2017-12-25T19:04:46.910Z,980.68
2017-12-25T19:05:46.850Z,980.67
2017-12-25T19:06:46.796Z,980.66
2017-12-25T19:07:46.811Z,980.63
2017-12-25T19:08:46.672Z,980.65
2017-12-25T19:09:46.648Z,980.64
2017-12-25T19:10:46.595Z,980.62
2017-12-25T19:11:46.558Z,980.65
2017-12-25T19:12:46.510Z,980.64
2017-12-25T19:13:46.440Z,980.58
2017-12-25T19:14:46.413Z,980.60
2017-12-25T19:15:46.360Z,980.62
2017-12-25T19:16:46.284Z,980.57
2017-12-25T19:17:46.278Z,980.59
2017-12-25T19:18:46.252Z,980.57
2017-12-25T19:19:46.167Z,980.54
2017-12-25T19:20:46.136Z,980.51
2017-12-25T19:21:46.088Z,980.52
2017-12-25T19:22:46.044Z,980.49
2017-12-25T19:23:46.002Z,980.45
2017-12-25T19:24:45.941Z,980.48
2017-12-25T19:25:45.886Z,980.46
2017-12-25T19:26:45.829Z,980.41
2017-12-25T19:27:45.784Z,980.36
2017-12-25T19:28:45.765Z,980.35
2017-12-25T19:29:45.724Z,980.33
2017-12-25T19:30:45.651Z,980.36
2017-12-25T19:31:45.605Z,980.33
2017-12-25T19:32:45.556Z,980.34
2017-12-25T19:33:45.511Z,980.34
2017-12-25T19:34:45.462Z,980.31
2017-12-25T19:35:45.474Z,980.28
2017-12-25T19:36:45.382Z,980.27
2017-12-25T19:37:45.388Z,980.25
2017-12-25T19:38:45.288Z,980.22
2017-12-25T19:39:45.240Z,980.18
2017-12-25T19:40:45.193Z,980.12
2017-12-25T19:41:45.137Z,980.19
2017-12-25T19:42:45.083Z,980.13
2017-12-25T19:43:45.055Z,980.12
2017-12-25T19:44:44.998Z,980.11
2017-12-25T19:45:45.510Z,980.09
2017-12-25T19:46:45.518Z,980.03
2017-12-25T19:47:44.871Z,979.99
2017-12-25T19:48:44.825Z,980.00
2017-12-25T19:49:44.794Z,979.96
2017-12-25T19:50:44.730Z,979.98
2017-12-25T19:51:44.715Z,979.94
2017-12-25T19:52:44.624Z,979.96
2017-12-25T19:53:44.716Z,979.93
2017-12-25T19:54:44.569Z,979.94
2017-12-25T19:55:44.586Z,979.86
2017-12-25T19:56:44.438Z,979.88
2017-12-25T19:57:44.435Z,979.86
2017-12-25T19:58:44.366Z,979.85
2017-12-25T19:59:44.351Z,979.79
2017-12-25T20:00:44.250Z,979.79
2017-12-25T20:01:44.344Z,979.78
2017-12-25T20:02:44.159Z,979.75
2017-12-25T20:03:44.134Z,979.75
2017-12-25T20:04:44.094Z,979.76
2017-12-25T20:05:44.026Z,979.73
2017-12-25T20:06:43.994Z,979.73
2017-12-25T20:07:43.948Z,979.69
2017-12-25T20:08:43.921Z,979.70
2017-12-25T20:09:43.831Z,979.73
2017-12-25T20:10:43.790Z,979.76
2017-12-25T20:11:43.764Z,979.69
2017-12-25T20:12:43.702Z,979.73
2017-12-25T20:13:43.669Z,979.73
2017-12-25T20:14:43.588Z,979.67
2017-12-25T20:15:43.566Z,979.65
2017-12-25T20:16:43.537Z,979.60
2017-12-25T20:17:43.491Z,979.64
2017-12-25T20:18:43.416Z,979.58
2017-12-25T20:19:43.370Z,979.58
2017-12-25T20:20:43.326Z,979.57
2017-12-25T20:21:43.287Z,979.56
2017-12-25T20:22:43.222Z,979.54
2017-12-25T20:23:43.199Z,979.50
2017-12-25T20:24:43.148Z,979.50
2017-12-25T20:25:44.622Z,979.50
2017-12-25T20:26:43.068Z,979.48
2017-12-25T20:27:43.104Z,979.46
2017-12-25T20:28:42.976Z,979.40
2017-12-25T20:29:42.907Z,979.42
2017-12-25T20:30:42.901Z,979.37
2017-12-25T20:31:42.821Z,979.33
2017-12-25T20:32:42.762Z,979.38
2017-12-25T20:33:42.702Z,979.31
2017-12-25T20:34:42.665Z,979.30
2017-12-25T20:35:42.629Z,979.33
2017-12-25T20:36:42.591Z,979.26
2017-12-25T20:37:42.514Z,979.22
2017-12-25T20:38:42.478Z,979.21
2017-12-25T20:39:42.431Z,979.21
2017-12-25T20:40:42.398Z,979.18
2017-12-25T20:41:42.317Z,979.15
2017-12-25T20:42:42.308Z,979.10
2017-12-25T20:43:42.238Z,979.08
2017-12-25T20:44:42.217Z,979.07
2017-12-25T20:45:42.133Z,979.08
2017-12-25T20:46:42.113Z,979.01
2017-12-25T20:47:42.043Z,979.04
2017-12-25T20:48:42.006Z,979.02
2017-12-25T20:49:41.955Z,979.02
2017-12-25T20:50:41.976Z,979.06
2017-12-25T20:51:41.877Z,979.09
2017-12-25T20:52:41.803Z,979.04
2017-12-25T20:53:41.787Z,978.96
2017-12-25T20:54:41.762Z,978.99
2017-12-25T20:55:41.887Z,978.97
2017-12-25T20:56:41.653Z,978.96
2017-12-25T20:57:41.580Z,978.98
2017-12-25T20:58:41.528Z,979.00
2017-12-25T20:59:41.498Z,978.93
2017-12-25T21:00:41.429Z,978.94
2017-12-25T21:01:42.184Z,979.00
2017-12-25T21:02:41.356Z,979.00
2017-12-25T21:03:41.462Z,979.02
2017-12-25T21:04:41.241Z,979.00
2017-12-25T21:05:41.211Z,979.03
2017-12-25T21:06:41.152Z,979.01
2017-12-25T21:07:41.102Z,979.00
2017-12-25T21:08:41.076Z,979.04
2017-12-25T21:09:41.025Z,979.04
2017-12-25T21:10:40.996Z,979.04
2017-12-25T21:11:40.965Z,978.99
2017-12-25T21:12:40.932Z,978.97
2017-12-25T21:13:40.956Z,978.97
2017-12-25T21:14:40.816Z,978.96
2017-12-25T21:15:40.809Z,978.90
2017-12-25T21:16:40.721Z,978.89
2017-12-25T21:17:41.533Z,978.88
2017-12-25T21:18:40.591Z,978.92
2017-12-25T21:19:41.572Z,978.88
2017-12-25T21:20:40.515Z,978.86
2017-12-25T21:21:40.504Z,978.89
2017-12-25T21:22:40.480Z,978.90
2017-12-25T21:23:40.361Z,978.89
2017-12-25T21:24:40.366Z,978.89
2017-12-25T21:25:40.266Z,978.84
2017-12-25T21:26:40.246Z,978.88
2017-12-25T21:27:40.232Z,978.87
2017-12-25T21:28:40.175Z,978.86
2017-12-25T21:29:40.102Z,978.82
2017-12-25T21:30:40.066Z,978.83
2017-12-25T21:31:39.995Z,978.79
2017-12-25T21:32:39.947Z,978.78
2017-12-25T21:33:39.929Z,978.79
2017-12-25T21:34:39.907Z,978.82
2017-12-25T21:35:39.811Z,978.81
2017-12-25T21:36:39.769Z,978.74
2017-12-25T21:37:39.729Z,978.73
2017-12-25T21:38:39.722Z,978.77
2017-12-25T21:39:39.631Z,978.69
2017-12-25T21:40:39.681Z,978.66
2017-12-25T21:41:39.533Z,978.63
2017-12-25T21:42:39.491Z,978.64
2017-12-25T21:43:39.437Z,978.60
2017-12-25T21:44:39.379Z,978.58
2017-12-25T21:45:39.339Z,978.59
2017-12-25T21:46:39.296Z,978.50
2017-12-25T21:47:39.262Z,978.49
2017-12-25T21:48:39.207Z,978.50
2017-12-25T21:49:39.196Z,978.44
2017-12-25T21:50:39.105Z,978.40
2017-12-25T21:51:39.061Z,978.34
2017-12-25T21:52:39.020Z,978.30
2017-12-25T21:53:39.098Z,978.26
2017-12-25T21:54:38.960Z,978.21
2017-12-25T21:55:38.928Z,978.25
2017-12-25T21:56:39.556Z,978.22
2017-12-25T21:57:38.823Z,978.11
2017-12-25T21:58:38.743Z,978.13
2017-12-25T21:59:38.726Z,978.16
2017-12-25T22:00:38.659Z,978.15
2017-12-25T22:01:38.659Z,978.18
2017-12-25T22:02:38.567Z,978.21
2017-12-25T22:03:38.507Z,978.12
2017-12-25T22:04:38.463Z,977.99
2017-12-25T22:05:38.528Z,978.08
2017-12-25T22:06:38.431Z,978.08
2017-12-25T22:07:38.397Z,978.06
2017-12-25T22:08:38.288Z,978.04
2017-12-25T22:09:38.232Z,978.09
2017-12-25T22:10:38.230Z,978.06
2017-12-25T22:11:38.138Z,978.04
2017-12-25T22:12:38.096Z,978.05
2017-12-25T22:13:38.046Z,978.09
2017-12-25T22:14:37.993Z,978.00
2017-12-25T22:15:37.944Z,978.02
2017-12-25T22:16:37.899Z,977.95
2017-12-25T22:17:37.852Z,977.93
2017-12-25T22:18:37.832Z,977.98
2017-12-25T22:19:37.762Z,977.97
2017-12-25T22:20:37.738Z,977.96
2017-12-25T22:21:37.704Z,978.00
2017-12-25T22:22:37.687Z,977.92
2017-12-25T22:23:37.587Z,977.93
2017-12-25T22:24:37.524Z,977.88
2017-12-25T22:25:37.494Z,977.87
2017-12-25T22:26:37.434Z,977.91
2017-12-25T22:27:37.423Z,977.86
2017-12-25T22:28:37.392Z,977.88
2017-12-25T22:29:37.294Z,977.84
2017-12-25T22:30:37.282Z,977.86
2017-12-25T22:31:37.206Z,977.81
2017-12-25T22:32:37.153Z,977.85
2017-12-25T22:33:37.117Z,977.82
2017-12-25T22:34:37.055Z,977.83
2017-12-25T22:35:37.003Z,977.91
2017-12-25T22:36:36.975Z,977.93
2017-12-25T22:37:36.922Z,977.89
2017-12-25T22:38:36.877Z,977.88
2017-12-25T22:39:36.823Z,977.91
2017-12-25T22:40:36.778Z,977.90
2017-12-25T22:41:36.732Z,977.85
2017-12-25T22:42:36.694Z,977.89
2017-12-25T22:43:36.641Z,977.88
2017-12-25T22:44:36.612Z,977.81
2017-12-25T22:45:36.579Z,977.83
2017-12-25T22:46:36.497Z,977.80
2017-12-25T22:47:36.449Z,977.79
2017-12-25T22:48:36.410Z,977.77
2017-12-25T22:49:36.352Z,977.75
2017-12-25T22:50:36.307Z,977.71
2017-12-25T22:51:36.249Z,977.65
2017-12-25T22:52:36.239Z,977.61
2017-12-25T22:53:36.159Z,977.62
2017-12-25T22:54:36.150Z,977.60
2017-12-25T22:55:36.067Z,977.57
2017-12-25T22:56:36.031Z,977.52
2017-12-25T22:57:36.067Z,977.55
2017-12-25T22:58:35.918Z,977.62
2017-12-25T22:59:35.900Z,977.55
2017-12-25T23:00:35.856Z,977.60
2017-12-25T23:01:35.798Z,977.51
2017-12-25T23:02:35.747Z,977.54
2017-12-25T23:03:35.700Z,977.55
2017-12-25T23:04:35.653Z,977.48
2017-12-25T23:05:35.597Z,977.49
2017-12-25T23:06:35.640Z,977.48
2017-12-25T23:07:35.511Z,977.42
2017-12-25T23:08:35.460Z,977.47
2017-12-25T23:09:35.465Z,977.45
2017-12-25T23:10:35.359Z,977.46
2017-12-25T23:11:35.329Z,977.47
2017-12-25T23:12:35.286Z,977.42
2017-12-25T23:13:35.234Z,977.42
2017-12-25T23:14:35.176Z,977.43
2017-12-25T23:15:35.136Z,977.40
2017-12-25T23:16:35.098Z,977.46
2017-12-25T23:17:35.033Z,977.42
2017-12-25T23:18:35.028Z,977.40
2017-12-25T23:19:34.950Z,977.35
2017-12-25T23:20:34.912Z,977.34
2017-12-25T23:21:34.861Z,977.32
2017-12-25T23:22:34.860Z,977.36
2017-12-25T23:23:34.764Z,977.33
2017-12-25T23:24:34.717Z,977.39
2017-12-25T23:25:34.696Z,977.30
2017-12-25T23:26:34.624Z,977.28
2017-12-25T23:27:34.594Z,977.33
2017-12-25T23:28:34.539Z,977.29
2017-12-25T23:29:34.485Z,977.32
2017-12-25T23:30:34.446Z,977.30
2017-12-25T23:31:34.416Z,977.22
2017-12-25T23:32:34.341Z,977.25
2017-12-25T23:33:34.325Z,977.24
2017-12-25T23:34:34.275Z,977.23
2017-12-25T23:35:34.214Z,977.20
2017-12-25T23:36:34.164Z,977.23
2017-12-25T23:37:34.113Z,977.15
2017-12-25T23:38:34.079Z,977.18
2017-12-25T23:39:34.016Z,977.20
2017-12-25T23:40:33.954Z,977.16
2017-12-25T23:41:33.949Z,977.17
2017-12-25T23:42:33.889Z,977.15
2017-12-25T23:43:33.821Z,977.22
2017-12-25T23:44:33.776Z,977.17
2017-12-25T23:45:33.753Z,977.25
2017-12-25T23:46:33.736Z,977.24
2017-12-25T23:47:33.639Z,977.17
2017-12-25T23:48:33.585Z,977.12
2017-12-25T23:49:33.550Z,977.23
2017-12-25T23:50:33.499Z,977.21
2017-12-25T23:51:33.450Z,977.11
2017-12-25T23:52:33.612Z,977.29
2017-12-25T23:53:33.373Z,977.15
2017-12-25T23:54:33.322Z,977.26
2017-12-25T23:55:33.271Z,977.20
2017-12-25T23:56:33.227Z,977.18
2017-12-25T23:57:33.175Z,977.12
2017-12-25T23:58:33.135Z,977.17
2017-12-25T23:59:33.077Z,977.17
